createdAt,value
2018-11-02T00:00:00.235Z,-4.24
2018-11-02T00:01:00.695Z,-4.26
2018-11-02T00:02:01.159Z,-4.28
2018-11-02T00:03:01.681Z,-4.30
2018-11-02T00:04:02.100Z,-4.28
2018-11-02T00:05:02.570Z,-4.28
2018-11-02T00:06:03.076Z,-4.26
2018-11-02T00:07:03.519Z,-4.28
2018-11-02T00:08:03.984Z,-4.30
2018-11-02T00:09:04.450Z,-4.32
2018-11-02T00:10:04.919Z,-4.30
2018-11-02T00:11:05.391Z,-4.26
2018-11-02T00:12:05.917Z,-4.21
2018-11-02T00:13:06.329Z,-4.23
2018-11-02T00:14:06.800Z,-4.28
2018-11-02T00:15:07.270Z,-4.29
2018-11-02T00:16:07.740Z,-4.26
2018-11-02T00:17:08.209Z,-4.21
2018-11-02T00:18:08.679Z,-4.21
2018-11-02T00:19:09.150Z,-4.19
2018-11-02T00:20:09.622Z,-4.22
2018-11-02T00:21:10.090Z,-4.24
2018-11-02T00:22:10.558Z,-4.28
2018-11-02T00:23:11.032Z,-4.31
2018-11-02T00:24:11.499Z,-4.31
2018-11-02T00:25:11.970Z,-4.32
2018-11-02T00:26:12.439Z,-4.32
2018-11-02T00:27:12.907Z,-4.32
2018-11-02T00:28:13.377Z,-4.32
2018-11-02T00:29:13.848Z,-4.38
2018-11-02T00:30:14.318Z,-4.38
2018-11-02T00:31:14.787Z,-4.38
2018-11-02T00:32:15.257Z,-4.38
2018-11-02T00:33:15.730Z,-4.32
2018-11-02T00:34:16.196Z,-4.32
2018-11-02T00:35:16.670Z,-4.28
2018-11-02T00:36:17.135Z,-4.24
2018-11-02T00:37:17.610Z,-4.24
2018-11-02T00:38:18.076Z,-4.28
2018-11-02T00:39:18.549Z,-4.28
2018-11-02T00:40:19.017Z,-4.28
2018-11-02T00:41:19.488Z,-4.30
2018-11-02T00:42:19.954Z,-4.28
2018-11-02T00:43:20.477Z,-4.26
2018-11-02T00:44:20.896Z,-4.30
2018-11-02T00:45:21.365Z,-4.32
2018-11-02T00:46:21.833Z,-4.29
2018-11-02T00:47:22.303Z,-4.27
2018-11-02T00:48:22.773Z,-4.22
2018-11-02T00:49:23.244Z,-4.17
2018-11-02T00:50:23.711Z,-4.14
2018-11-02T00:51:24.183Z,-4.18
2018-11-02T00:52:24.655Z,-4.19
2018-11-02T00:53:25.126Z,-4.22
2018-11-02T00:54:25.592Z,-4.20
2018-11-02T00:55:26.061Z,-4.18
2018-11-02T00:56:26.533Z,-4.18
2018-11-02T00:57:27.001Z,-4.20
2018-11-02T00:58:27.474Z,-4.22
2018-11-02T00:59:27.939Z,-4.22
2018-11-02T01:00:28.409Z,-4.22
2018-11-02T01:01:28.879Z,-4.26
2018-11-02T01:02:29.348Z,-4.28
2018-11-02T01:03:29.820Z,-4.28
2018-11-02T01:04:30.287Z,-4.30
2018-11-02T01:05:30.755Z,-4.32
2018-11-02T01:06:31.238Z,-4.33
2018-11-02T01:07:31.695Z,-4.32
2018-11-02T01:08:32.170Z,-4.34
2018-11-02T01:09:32.634Z,-4.32
2018-11-02T01:10:33.104Z,-4.26
2018-11-02T01:11:33.573Z,-4.32
2018-11-02T01:12:34.067Z,-4.32
2018-11-02T01:13:34.564Z,-4.32
2018-11-02T01:14:34.981Z,-4.34
2018-11-02T01:15:35.456Z,-4.35
2018-11-02T01:16:35.930Z,-4.38
2018-11-02T01:17:36.392Z,-4.38
2018-11-02T01:18:36.860Z,-4.38
2018-11-02T01:19:37.331Z,-4.34
2018-11-02T01:20:37.800Z,-4.29
2018-11-02T01:21:38.277Z,-4.26
2018-11-02T01:22:38.737Z,-4.27
2018-11-02T01:23:39.208Z,-4.30
2018-11-02T01:24:39.678Z,-4.32
2018-11-02T01:25:40.147Z,-4.34
2018-11-02T01:26:40.632Z,-4.32
2018-11-02T01:27:41.310Z,-4.30
2018-11-02T01:28:41.556Z,-4.30
2018-11-02T01:29:42.024Z,-4.31
2018-11-02T01:30:42.494Z,-4.30
2018-11-02T01:31:42.965Z,-4.30
2018-11-02T01:32:43.438Z,-4.32
2018-11-02T01:33:43.954Z,-4.26
2018-11-02T01:34:44.377Z,-4.26
2018-11-02T01:35:44.843Z,-4.26
2018-11-02T01:36:45.316Z,-4.20
2018-11-02T01:37:45.782Z,-4.18
2018-11-02T01:38:46.252Z,-4.14
2018-11-02T01:39:46.723Z,-4.09
2018-11-02T01:40:47.195Z,-4.12
2018-11-02T01:41:47.663Z,-4.14
2018-11-02T01:42:48.131Z,-4.12
2018-11-02T01:43:48.599Z,-4.16
2018-11-02T01:44:49.070Z,-4.12
2018-11-02T01:45:49.541Z,-4.11
2018-11-02T01:46:50.007Z,-4.06
2018-11-02T01:47:50.477Z,-4.10
2018-11-02T01:48:50.947Z,-4.11
2018-11-02T01:49:51.419Z,-4.14
2018-11-02T01:50:51.886Z,-4.13
2018-11-02T01:51:52.363Z,-4.10
2018-11-02T01:52:52.829Z,-4.08
2018-11-02T01:53:53.301Z,-4.09
2018-11-02T01:54:53.766Z,-4.08
2018-11-02T01:55:54.234Z,-4.06
2018-11-02T01:56:54.706Z,-4.06
2018-11-02T01:57:55.180Z,-4.12
2018-11-02T01:58:55.695Z,-4.13
2018-11-02T01:59:56.115Z,-4.18
2018-11-02T02:00:56.583Z,-4.21
2018-11-02T02:01:57.055Z,-4.22
2018-11-02T02:02:57.522Z,-4.23
2018-11-02T02:03:58.045Z,-4.28
2018-11-02T02:04:58.462Z,-4.29
2018-11-02T02:05:58.934Z,-4.28
2018-11-02T02:06:59.400Z,-4.30
2018-11-02T02:07:59.869Z,-4.25
2018-11-02T02:09:00.339Z,-4.24
2018-11-02T02:10:00.809Z,-4.22
2018-11-02T02:11:01.282Z,-4.24
2018-11-02T02:12:01.748Z,-4.23
2018-11-02T02:13:02.229Z,-4.24
2018-11-02T02:14:02.688Z,-4.25
2018-11-02T02:15:03.163Z,-4.26
2018-11-02T02:16:03.625Z,-4.26
2018-11-02T02:17:04.098Z,-4.22
2018-11-02T02:18:04.569Z,-4.22
2018-11-02T02:19:05.037Z,-4.17
2018-11-02T02:20:05.507Z,-4.18
2018-11-02T02:21:05.973Z,-4.16
2018-11-02T02:22:06.442Z,-4.18
2018-11-02T02:23:06.913Z,-4.16
2018-11-02T02:24:07.382Z,-4.10
2018-11-02T02:25:07.853Z,-4.12
2018-11-02T02:26:08.323Z,-4.15
2018-11-02T02:27:08.790Z,-4.14
2018-11-02T02:28:09.260Z,-4.15
2018-11-02T02:29:09.730Z,-4.18
2018-11-02T02:30:10.201Z,-4.18
2018-11-02T02:31:10.669Z,-4.17
2018-11-02T02:32:11.138Z,-4.18
2018-11-02T02:33:11.623Z,-4.15
2018-11-02T02:34:12.077Z,-4.12
2018-11-02T02:35:12.546Z,-4.16
2018-11-02T02:36:13.016Z,-4.14
2018-11-02T02:37:13.487Z,-4.16
2018-11-02T02:38:13.959Z,-4.14
2018-11-02T02:39:14.475Z,-4.14
2018-11-02T02:40:14.897Z,-4.20
2018-11-02T02:41:15.364Z,-4.18
2018-11-02T02:42:15.833Z,-4.17
2018-11-02T02:43:16.301Z,-4.16
2018-11-02T02:44:16.772Z,-4.10
2018-11-02T02:45:17.241Z,-4.10
2018-11-02T02:46:17.712Z,-4.08
2018-11-02T02:47:18.180Z,-4.08
2018-11-02T02:48:18.649Z,-4.06
2018-11-02T02:49:19.171Z,-4.10
2018-11-02T02:50:19.588Z,-4.08
2018-11-02T02:51:20.059Z,-4.10
2018-11-02T02:52:20.530Z,-4.12
2018-11-02T02:53:21.001Z,-4.09
2018-11-02T02:54:21.518Z,-4.08
2018-11-02T02:55:21.939Z,-4.08
2018-11-02T02:56:22.406Z,-4.08
2018-11-02T02:57:22.880Z,-4.08
2018-11-02T02:58:23.344Z,-4.02
2018-11-02T02:59:23.814Z,-4.03
2018-11-02T03:00:24.285Z,-4.00
2018-11-02T03:01:24.755Z,-4.00
2018-11-02T03:02:25.240Z,-4.00
2018-11-02T03:03:25.694Z,-3.98
2018-11-02T03:04:26.212Z,-3.99
2018-11-02T03:05:26.632Z,-3.96
2018-11-02T03:06:27.101Z,-3.91
2018-11-02T03:07:27.570Z,-3.85
2018-11-02T03:08:28.040Z,-3.88
2018-11-02T03:09:28.561Z,-3.92
2018-11-02T03:10:29.002Z,-3.92
2018-11-02T03:11:29.447Z,-3.96
2018-11-02T03:12:29.917Z,-3.95
2018-11-02T03:13:30.387Z,-3.93
2018-11-02T03:14:30.859Z,-3.97
2018-11-02T03:15:31.327Z,-4.00
2018-11-02T03:16:31.795Z,-4.00
2018-11-02T03:17:32.267Z,-3.99
2018-11-02T03:18:32.854Z,-4.00
2018-11-02T03:19:33.205Z,-3.98
2018-11-02T03:20:33.676Z,-3.96
2018-11-02T03:21:34.148Z,-3.97
2018-11-02T03:22:34.681Z,-3.94
2018-11-02T03:23:35.124Z,-3.97
2018-11-02T03:24:35.603Z,-4.00
2018-11-02T03:25:36.023Z,-4.02
2018-11-02T03:26:36.492Z,-3.98
2018-11-02T03:27:36.962Z,-3.94
2018-11-02T03:28:37.432Z,-3.91
2018-11-02T03:29:37.902Z,-3.90
2018-11-02T03:30:38.436Z,-3.86
2018-11-02T03:31:38.991Z,-3.88
2018-11-02T03:32:39.312Z,-3.87
2018-11-02T03:33:39.781Z,-3.85
2018-11-02T03:34:40.249Z,-3.84
2018-11-02T03:35:40.758Z,-3.86
2018-11-02T03:36:41.188Z,-3.86
2018-11-02T03:37:41.810Z,-3.83
2018-11-02T03:38:42.128Z,-3.78
2018-11-02T03:39:42.648Z,-3.78
2018-11-02T03:40:43.066Z,-3.78
2018-11-02T03:41:43.540Z,-3.78
2018-11-02T03:42:44.008Z,-3.77
2018-11-02T03:43:44.477Z,-3.80
2018-11-02T03:44:44.946Z,-3.80
2018-11-02T03:45:45.417Z,-3.81
2018-11-02T03:46:45.886Z,-3.82
2018-11-02T03:47:46.355Z,-3.78
2018-11-02T03:48:46.828Z,-3.78
2018-11-02T03:49:47.345Z,-3.78
2018-11-02T03:50:47.766Z,-3.78
2018-11-02T03:51:48.237Z,-3.81
2018-11-02T03:52:48.705Z,-3.75
2018-11-02T03:53:49.174Z,-3.68
2018-11-02T03:54:49.643Z,-3.70
2018-11-02T03:55:50.113Z,-3.77
2018-11-02T03:56:50.660Z,-3.72
2018-11-02T03:57:51.053Z,-3.57
2018-11-02T03:58:51.524Z,-3.56
2018-11-02T03:59:51.993Z,-3.60
2018-11-02T04:00:52.463Z,-3.48
2018-11-02T04:01:52.939Z,-3.33
2018-11-02T04:02:53.405Z,-3.43
2018-11-02T04:03:53.872Z,-3.50
2018-11-02T04:04:54.343Z,-3.60
2018-11-02T04:05:54.816Z,-3.58
2018-11-02T04:06:55.280Z,-3.26
2018-11-02T04:07:55.751Z,-3.16
2018-11-02T04:08:56.220Z,-3.26
2018-11-02T04:09:56.690Z,-3.42
2018-11-02T04:10:57.178Z,-3.52
2018-11-02T04:11:57.629Z,-3.25
2018-11-02T04:12:58.103Z,-2.96
2018-11-02T04:13:58.573Z,-2.72
2018-11-02T04:14:59.039Z,-2.81
2018-11-02T04:15:59.510Z,-3.00
2018-11-02T04:16:59.978Z,-3.02
2018-11-02T04:18:00.450Z,-2.80
2018-11-02T04:19:00.918Z,-2.62
2018-11-02T04:20:01.388Z,-2.64
2018-11-02T04:21:01.858Z,-2.63
2018-11-02T04:22:02.328Z,-2.58
2018-11-02T04:23:02.797Z,-2.56
2018-11-02T04:24:03.269Z,-2.56
2018-11-02T04:25:03.737Z,-2.58
2018-11-02T04:26:04.209Z,-2.69
2018-11-02T04:27:04.677Z,-2.72
2018-11-02T04:28:05.145Z,-2.88
2018-11-02T04:29:05.619Z,-3.08
2018-11-02T04:30:06.087Z,-3.24
2018-11-02T04:31:06.718Z,-3.42
2018-11-02T04:32:07.026Z,-3.20
2018-11-02T04:33:07.498Z,-2.96
2018-11-02T04:34:07.967Z,-2.85
2018-11-02T04:35:08.437Z,-2.94
2018-11-02T04:36:08.904Z,-3.18
2018-11-02T04:37:09.374Z,-3.36
2018-11-02T04:38:09.844Z,-3.44
2018-11-02T04:39:10.315Z,-3.50
2018-11-02T04:40:10.784Z,-3.56
2018-11-02T04:41:11.267Z,-3.57
2018-11-02T04:42:11.723Z,-3.58
2018-11-02T04:43:12.196Z,-3.62
2018-11-02T04:44:12.669Z,-3.64
2018-11-02T04:45:13.134Z,-3.69
2018-11-02T04:46:13.603Z,-3.70
2018-11-02T04:47:14.074Z,-3.53
2018-11-02T04:48:14.541Z,-3.44
2018-11-02T04:49:15.013Z,-3.32
2018-11-02T04:50:15.483Z,-3.10
2018-11-02T04:51:15.998Z,-2.97
2018-11-02T04:52:16.422Z,-2.94
2018-11-02T04:53:16.893Z,-2.96
2018-11-02T04:54:17.363Z,-3.01
2018-11-02T04:55:17.832Z,-3.02
2018-11-02T04:56:18.301Z,-3.02
2018-11-02T04:57:18.782Z,-2.94
2018-11-02T04:58:19.245Z,-2.90
2018-11-02T04:59:19.732Z,-2.90
2018-11-02T05:00:20.189Z,-2.80
2018-11-02T05:01:20.651Z,-2.72
2018-11-02T05:02:21.121Z,-2.76
2018-11-02T05:03:21.592Z,-2.94
2018-11-02T05:04:22.062Z,-2.85
2018-11-02T05:05:22.530Z,-2.65
2018-11-02T05:06:23.000Z,-2.52
2018-11-02T05:07:23.473Z,-2.53
2018-11-02T05:08:23.939Z,-2.54
2018-11-02T05:09:24.420Z,-2.54
2018-11-02T05:10:24.879Z,-2.50
2018-11-02T05:11:25.432Z,-2.52
2018-11-02T05:12:25.818Z,-2.52
2018-11-02T05:13:26.288Z,-2.60
2018-11-02T05:14:26.758Z,-2.64
2018-11-02T05:15:27.229Z,-2.70
2018-11-02T05:16:27.727Z,-2.72
2018-11-02T05:17:28.171Z,-2.76
2018-11-02T05:18:28.638Z,-2.70
2018-11-02T05:19:29.109Z,-2.70
2018-11-02T05:20:29.579Z,-2.68
2018-11-02T05:21:30.176Z,-2.54
2018-11-02T05:22:30.518Z,-2.48
2018-11-02T05:23:30.987Z,-2.48
2018-11-02T05:24:31.459Z,-2.47
2018-11-02T05:25:31.926Z,-2.40
2018-11-02T05:26:32.397Z,-2.40
2018-11-02T05:27:32.868Z,-2.41
2018-11-02T05:28:33.337Z,-2.44
2018-11-02T05:29:33.807Z,-2.46
2018-11-02T05:30:34.328Z,-2.53
2018-11-02T05:31:34.747Z,-2.56
2018-11-02T05:32:35.216Z,-2.55
2018-11-02T05:33:35.687Z,-2.52
2018-11-02T05:34:36.156Z,-2.45
2018-11-02T05:35:36.680Z,-2.43
2018-11-02T05:36:37.101Z,-2.40
2018-11-02T05:37:37.565Z,-2.38
2018-11-02T05:38:38.039Z,-2.38
2018-11-02T05:39:38.572Z,-2.32
2018-11-02T05:40:38.978Z,-2.22
2018-11-02T05:41:39.447Z,-2.22
2018-11-02T05:42:39.963Z,-2.13
2018-11-02T05:43:40.386Z,-2.08
2018-11-02T05:44:40.857Z,-2.10
2018-11-02T05:45:41.328Z,-2.16
2018-11-02T05:46:41.880Z,-2.18
2018-11-02T05:47:42.268Z,-2.20
2018-11-02T05:48:42.736Z,-2.24
2018-11-02T05:49:43.214Z,-2.26
2018-11-02T05:50:43.675Z,-2.29
2018-11-02T05:51:44.148Z,-2.34
2018-11-02T05:52:44.616Z,-2.43
2018-11-02T05:53:45.088Z,-2.44
2018-11-02T05:54:45.557Z,-2.48
2018-11-02T05:55:46.031Z,-2.46
2018-11-02T05:56:46.494Z,-2.46
2018-11-02T05:57:46.994Z,-2.48
2018-11-02T05:58:47.435Z,-2.46
2018-11-02T05:59:47.907Z,-2.48
2018-11-02T06:00:48.377Z,-2.48
2018-11-02T06:01:48.846Z,-2.51
2018-11-02T06:02:49.318Z,-2.58
2018-11-02T06:03:49.801Z,-2.58
2018-11-02T06:04:50.257Z,-2.63
2018-11-02T06:05:50.724Z,-2.66
2018-11-02T06:06:51.195Z,-2.65
2018-11-02T06:07:51.711Z,-2.66
2018-11-02T06:08:52.137Z,-2.64
2018-11-02T06:09:52.610Z,-2.64
2018-11-02T06:10:53.080Z,-2.66
2018-11-02T06:11:53.549Z,-2.64
2018-11-02T06:12:54.018Z,-2.64
2018-11-02T06:13:54.486Z,-2.68
2018-11-02T06:14:54.958Z,-2.66
2018-11-02T06:15:55.429Z,-2.67
2018-11-02T06:16:55.972Z,-2.70
2018-11-02T06:17:56.367Z,-2.70
2018-11-02T06:18:56.840Z,-2.72
2018-11-02T06:19:57.359Z,-2.70
2018-11-02T06:20:57.777Z,-2.60
2018-11-02T06:21:58.249Z,-2.54
2018-11-02T06:22:58.720Z,-2.54
2018-11-02T06:23:59.233Z,-2.58
2018-11-02T06:24:59.660Z,-2.62
2018-11-02T06:26:00.132Z,-2.66
2018-11-02T06:27:00.600Z,-2.75
2018-11-02T06:28:01.074Z,-2.86
2018-11-02T06:29:01.540Z,-2.78
2018-11-02T06:30:02.014Z,-2.66
2018-11-02T06:31:02.482Z,-2.50
2018-11-02T06:32:02.951Z,-2.42
2018-11-02T06:33:03.421Z,-2.37
2018-11-02T06:34:03.895Z,-2.40
2018-11-02T06:35:04.363Z,-2.58
2018-11-02T06:36:04.832Z,-2.76
2018-11-02T06:37:05.304Z,-2.95
2018-11-02T06:38:05.772Z,-3.10
2018-11-02T06:39:06.244Z,-3.18
2018-11-02T06:40:06.712Z,-3.24
2018-11-02T06:41:07.186Z,-3.22
2018-11-02T06:42:07.653Z,-3.06
2018-11-02T06:43:08.123Z,-2.86
2018-11-02T06:44:08.592Z,-2.76
2018-11-02T06:45:09.097Z,-2.63
2018-11-02T06:46:09.533Z,-2.62
2018-11-02T06:47:10.006Z,-2.72
2018-11-02T06:48:10.474Z,-2.90
2018-11-02T06:49:10.944Z,-3.08
2018-11-02T06:50:11.415Z,-3.19
2018-11-02T06:51:11.884Z,-3.29
2018-11-02T06:52:12.355Z,-3.33
2018-11-02T06:53:12.823Z,-3.35
2018-11-02T06:54:13.294Z,-3.36
2018-11-02T06:55:13.764Z,-3.34
2018-11-02T06:56:14.235Z,-3.36
2018-11-02T06:57:14.704Z,-3.36
2018-11-02T06:58:15.173Z,-3.34
2018-11-02T06:59:15.686Z,-3.34
2018-11-02T07:00:16.154Z,-3.38
2018-11-02T07:01:16.635Z,-3.38
2018-11-02T07:02:17.056Z,-3.36
2018-11-02T07:03:17.525Z,-3.33
2018-11-02T07:04:17.996Z,-3.31
2018-11-02T07:05:18.463Z,-3.30
2018-11-02T07:06:18.984Z,-3.29
2018-11-02T07:07:19.489Z,-3.28
2018-11-02T07:08:19.925Z,-3.29
2018-11-02T07:09:20.344Z,-3.25
2018-11-02T07:10:20.815Z,-3.26
2018-11-02T07:11:21.285Z,-3.26
2018-11-02T07:12:21.753Z,-3.24
2018-11-02T07:13:22.226Z,-3.22
2018-11-02T07:14:22.694Z,-3.20
2018-11-02T07:15:23.164Z,-3.21
2018-11-02T07:16:23.633Z,-3.21
2018-11-02T07:17:24.106Z,-3.20
2018-11-02T07:18:24.574Z,-3.22
2018-11-02T07:19:25.046Z,-3.23
2018-11-02T07:20:25.518Z,-3.25
2018-11-02T07:21:26.037Z,-3.28
2018-11-02T07:22:26.454Z,-3.26
2018-11-02T07:23:26.925Z,-3.20
2018-11-02T07:24:27.393Z,-3.20
2018-11-02T07:25:27.866Z,-3.17
2018-11-02T07:26:28.336Z,-3.17
2018-11-02T07:27:28.804Z,-3.12
2018-11-02T07:28:29.276Z,-3.10
2018-11-02T07:29:29.743Z,-3.10
2018-11-02T07:30:30.215Z,-3.10
2018-11-02T07:31:30.684Z,-3.08
2018-11-02T07:32:31.157Z,-3.08
2018-11-02T07:33:31.624Z,-2.99
2018-11-02T07:34:32.163Z,-3.02
2018-11-02T07:35:32.564Z,-3.05
2018-11-02T07:36:33.035Z,-3.08
2018-11-02T07:37:33.506Z,-3.10
2018-11-02T07:38:33.977Z,-3.06
2018-11-02T07:39:34.446Z,-2.87
2018-11-02T07:40:34.917Z,-2.84
2018-11-02T07:41:35.388Z,-2.86
2018-11-02T07:42:35.859Z,-2.89
2018-11-02T07:43:36.327Z,-2.94
2018-11-02T07:44:36.798Z,-2.78
2018-11-02T07:45:37.269Z,-2.71
2018-11-02T07:46:37.737Z,-2.70
2018-11-02T07:47:38.266Z,-2.69
2018-11-02T07:48:38.680Z,-2.69
2018-11-02T07:49:39.255Z,-2.67
2018-11-02T07:50:39.621Z,-2.62
2018-11-02T07:51:40.105Z,-2.58
2018-11-02T07:52:40.635Z,-2.58
2018-11-02T07:53:41.034Z,-2.50
2018-11-02T07:54:41.501Z,-2.38
2018-11-02T07:55:41.974Z,-2.35
2018-11-02T07:56:42.442Z,-2.30
2018-11-02T07:57:42.913Z,-2.24
2018-11-02T07:58:43.383Z,-2.20
2018-11-02T07:59:43.854Z,-2.16
2018-11-02T08:00:44.325Z,-2.12
2018-11-02T08:01:44.859Z,-2.08
2018-11-02T08:02:45.266Z,-2.05
2018-11-02T08:03:45.736Z,-2.04
2018-11-02T08:04:46.208Z,-2.01
2018-11-02T08:05:46.678Z,-1.98
2018-11-02T08:06:47.149Z,-1.98
2018-11-02T08:07:47.620Z,-2.00
2018-11-02T08:08:48.093Z,-2.02
2018-11-02T08:09:48.563Z,-2.00
2018-11-02T08:10:49.034Z,-1.98
2018-11-02T08:11:49.503Z,-1.94
2018-11-02T08:12:49.978Z,-2.06
2018-11-02T08:13:50.445Z,-2.20
2018-11-02T08:14:50.914Z,-2.32
2018-11-02T08:15:51.388Z,-2.44
2018-11-02T08:16:51.857Z,-2.53
2018-11-02T08:17:52.329Z,-2.60
2018-11-02T08:18:52.862Z,-2.66
2018-11-02T08:19:53.275Z,-2.71
2018-11-02T08:20:53.742Z,-2.74
2018-11-02T08:21:54.213Z,-2.81
2018-11-02T08:22:54.686Z,-2.89
2018-11-02T08:23:55.157Z,-2.90
2018-11-02T08:24:55.629Z,-2.86
2018-11-02T08:25:56.096Z,-2.73
2018-11-02T08:26:56.572Z,-2.66
2018-11-02T08:27:57.040Z,-2.66
2018-11-02T08:28:57.512Z,-2.72
2018-11-02T08:29:57.980Z,-2.76
2018-11-02T08:30:58.452Z,-2.82
2018-11-02T08:31:58.979Z,-2.76
2018-11-02T08:32:59.396Z,-2.65
2018-11-02T08:33:59.866Z,-2.60
2018-11-02T08:35:00.345Z,-2.66
2018-11-02T08:36:00.810Z,-2.48
2018-11-02T08:37:01.283Z,-2.24
2018-11-02T08:38:01.753Z,-2.09
2018-11-02T08:39:02.224Z,-2.00
2018-11-02T08:40:02.696Z,-1.98
2018-11-02T08:41:03.167Z,-1.98
2018-11-02T08:42:03.641Z,-1.92
2018-11-02T08:43:04.109Z,-1.90
2018-11-02T08:44:04.581Z,-1.96
2018-11-02T08:45:05.057Z,-1.98
2018-11-02T08:46:05.528Z,-1.98
2018-11-02T08:47:05.996Z,-2.06
2018-11-02T08:48:06.471Z,-2.12
2018-11-02T08:49:06.941Z,-2.24
2018-11-02T08:50:07.415Z,-2.32
2018-11-02T08:51:07.886Z,-2.41
2018-11-02T08:52:08.425Z,-2.40
2018-11-02T08:53:08.828Z,-2.31
2018-11-02T08:54:09.298Z,-2.19
2018-11-02T08:55:09.771Z,-2.10
2018-11-02T08:56:10.241Z,-2.10
2018-11-02T08:57:10.717Z,-2.10
2018-11-02T08:58:11.281Z,-2.05
2018-11-02T08:59:11.721Z,-1.98
2018-11-02T09:00:12.172Z,-1.98
2018-11-02T09:01:12.603Z,-1.97
2018-11-02T09:02:13.072Z,-1.96
2018-11-02T09:03:13.543Z,-2.00
2018-11-02T09:04:14.046Z,-2.01
2018-11-02T09:05:14.580Z,-1.96
2018-11-02T09:06:14.959Z,-1.94
2018-11-02T09:07:15.436Z,-1.94
2018-11-02T09:08:15.907Z,-1.94
2018-11-02T09:09:16.375Z,-1.96
2018-11-02T09:10:16.851Z,-1.94
2018-11-02T09:11:17.321Z,-1.95
2018-11-02T09:12:17.828Z,-1.94
2018-11-02T09:13:18.264Z,-1.86
2018-11-02T09:14:18.734Z,-1.78
2018-11-02T09:15:19.207Z,-1.66
2018-11-02T09:16:19.678Z,-1.64
2018-11-02T09:17:20.206Z,-1.68
2018-11-02T09:18:20.648Z,-1.62
2018-11-02T09:19:21.134Z,-1.58
2018-11-02T09:20:21.567Z,-1.56
2018-11-02T09:21:22.040Z,-1.60
2018-11-02T09:22:22.510Z,-1.54
2018-11-02T09:23:22.994Z,-1.50
2018-11-02T09:24:23.455Z,-1.49
2018-11-02T09:25:23.928Z,-1.48
2018-11-02T09:26:24.398Z,-1.46
2018-11-02T09:27:24.879Z,-1.42
2018-11-02T09:28:25.343Z,-1.31
2018-11-02T09:29:25.824Z,-1.24
2018-11-02T09:30:26.288Z,-1.28
2018-11-02T09:31:26.762Z,-1.38
2018-11-02T09:32:27.290Z,-1.42
2018-11-02T09:33:27.705Z,-1.44
2018-11-02T09:34:28.181Z,-1.50
2018-11-02T09:35:28.648Z,-1.46
2018-11-02T09:36:29.121Z,-1.41
2018-11-02T09:37:29.595Z,-1.30
2018-11-02T09:38:30.065Z,-1.30
2018-11-02T09:39:30.535Z,-1.34
2018-11-02T09:40:31.107Z,-1.34
2018-11-02T09:41:31.485Z,-1.34
2018-11-02T09:42:32.022Z,-1.31
2018-11-02T09:43:32.425Z,-1.32
2018-11-02T09:44:32.898Z,-1.32
2018-11-02T09:45:33.372Z,-1.34
2018-11-02T09:46:33.843Z,-1.33
2018-11-02T09:47:34.368Z,-1.32
2018-11-02T09:48:34.786Z,-1.34
2018-11-02T09:49:35.260Z,-1.34
2018-11-02T09:50:35.733Z,-1.34
2018-11-02T09:51:36.298Z,-1.29
2018-11-02T09:52:36.680Z,-1.22
2018-11-02T09:53:37.151Z,-1.16
2018-11-02T09:54:37.622Z,-1.16
2018-11-02T09:55:38.096Z,-1.08
2018-11-02T09:56:38.570Z,-1.08
2018-11-02T09:57:39.141Z,-1.04
2018-11-02T09:58:39.516Z,-1.02
2018-11-02T09:59:39.986Z,-1.01
2018-11-02T10:00:40.457Z,-1.00
2018-11-02T10:01:40.934Z,-0.96
2018-11-02T10:02:41.404Z,-0.92
2018-11-02T10:03:41.876Z,-0.94
2018-11-02T10:04:42.349Z,-1.00
2018-11-02T10:05:42.821Z,-1.04
2018-11-02T10:06:43.295Z,-1.08
2018-11-02T10:07:43.820Z,-1.10
2018-11-02T10:08:44.241Z,-1.15
2018-11-02T10:09:44.717Z,-1.10
2018-11-02T10:10:45.185Z,-1.04
2018-11-02T10:11:45.657Z,-1.02
2018-11-02T10:12:46.181Z,-1.00
2018-11-02T10:13:46.607Z,-1.06
2018-11-02T10:14:47.076Z,-1.04
2018-11-02T10:15:47.550Z,-0.98
2018-11-02T10:16:48.023Z,-0.98
2018-11-02T10:17:48.498Z,-0.96
2018-11-02T10:18:48.967Z,-0.90
2018-11-02T10:19:49.441Z,-0.91
2018-11-02T10:20:49.915Z,-0.92
2018-11-02T10:21:50.389Z,-0.92
2018-11-02T10:22:50.861Z,-0.96
2018-11-02T10:23:51.401Z,-0.94
2018-11-02T10:24:51.807Z,-0.88
2018-11-02T10:25:52.280Z,-0.77
2018-11-02T10:26:52.751Z,-0.74
2018-11-02T10:27:53.225Z,-0.78
2018-11-02T10:28:53.696Z,-0.79
2018-11-02T10:29:54.168Z,-0.82
2018-11-02T10:30:54.640Z,-0.90
2018-11-02T10:31:55.110Z,-0.84
2018-11-02T10:32:55.581Z,-0.82
2018-11-02T10:33:56.054Z,-0.80
2018-11-02T10:34:56.521Z,-0.72
2018-11-02T10:35:57.122Z,-0.64
2018-11-02T10:36:57.465Z,-0.58
2018-11-02T10:37:57.934Z,-0.58
2018-11-02T10:38:58.403Z,-0.58
2018-11-02T10:39:58.876Z,-0.64
2018-11-02T10:40:59.345Z,-0.76
2018-11-02T10:41:59.814Z,-0.80
2018-11-02T10:43:00.332Z,-0.86
2018-11-02T10:44:00.753Z,-0.94
2018-11-02T10:45:01.307Z,-1.00
2018-11-02T10:46:01.690Z,-1.02
2018-11-02T10:47:02.160Z,-1.01
2018-11-02T10:48:02.630Z,-0.98
2018-11-02T10:49:03.099Z,-0.98
2018-11-02T10:50:03.567Z,-1.01
2018-11-02T10:51:04.048Z,-1.00
2018-11-02T10:52:04.504Z,-1.04
2018-11-02T10:53:04.979Z,-1.13
2018-11-02T10:54:05.443Z,-1.16
2018-11-02T10:55:05.910Z,-1.12
2018-11-02T10:56:06.381Z,-1.08
2018-11-02T10:57:06.850Z,-1.06
2018-11-02T10:58:07.370Z,-1.13
2018-11-02T10:59:07.787Z,-1.21
2018-11-02T11:00:08.255Z,-1.27
2018-11-02T11:01:08.858Z,-1.35
2018-11-02T11:02:09.197Z,-1.40
2018-11-02T11:03:09.666Z,-1.45
2018-11-02T11:04:10.133Z,-1.49
2018-11-02T11:05:10.641Z,-1.50
2018-11-02T11:06:11.076Z,-1.58
2018-11-02T11:07:11.542Z,-1.62
2018-11-02T11:08:12.012Z,-1.60
2018-11-02T11:09:12.482Z,-1.60
2018-11-02T11:10:12.955Z,-1.60
2018-11-02T11:11:13.424Z,-1.60
2018-11-02T11:12:13.937Z,-1.62
2018-11-02T11:13:14.762Z,-1.66
2018-11-02T11:14:14.835Z,-1.72
2018-11-02T11:15:15.311Z,-1.74
2018-11-02T11:16:15.775Z,-1.84
2018-11-02T11:17:16.247Z,-1.93
2018-11-02T11:18:16.717Z,-1.58
2018-11-02T11:19:17.185Z,-1.22
2018-11-02T11:20:17.663Z,-1.24
2018-11-02T11:21:18.155Z,-0.89
2018-11-02T11:22:18.599Z,-0.63
2018-11-02T11:23:19.123Z,-0.68
2018-11-02T11:24:19.542Z,-0.74
2018-11-02T11:25:20.013Z,-0.66
2018-11-02T11:26:20.485Z,-0.56
2018-11-02T11:27:20.955Z,-0.54
2018-11-02T11:28:21.425Z,-0.52
2018-11-02T11:29:21.955Z,-0.59
2018-11-02T11:30:22.373Z,-0.70
2018-11-02T11:31:22.842Z,-0.76
2018-11-02T11:32:23.312Z,-0.99
2018-11-02T11:33:23.787Z,-0.98
2018-11-02T11:34:24.257Z,-0.82
2018-11-02T11:35:24.729Z,-0.71
2018-11-02T11:36:25.200Z,-0.67
2018-11-02T11:37:25.680Z,-0.66
2018-11-02T11:38:26.145Z,-0.72
2018-11-02T11:39:26.631Z,-0.77
2018-11-02T11:40:27.090Z,-0.89
2018-11-02T11:41:27.561Z,-1.04
2018-11-02T11:42:28.034Z,-1.05
2018-11-02T11:43:28.559Z,-1.12
2018-11-02T11:44:28.980Z,-1.16
2018-11-02T11:45:29.451Z,-1.10
2018-11-02T11:46:29.923Z,-1.10
2018-11-02T11:47:30.397Z,-1.12
2018-11-02T11:48:30.943Z,-1.18
2018-11-02T11:49:31.376Z,-1.26
2018-11-02T11:50:31.816Z,-1.35
2018-11-02T11:51:32.289Z,-1.34
2018-11-02T11:52:32.764Z,-1.34
2018-11-02T11:53:33.235Z,-1.26
2018-11-02T11:54:33.790Z,-1.05
2018-11-02T11:55:34.193Z,-0.98
2018-11-02T11:56:34.653Z,-0.91
2018-11-02T11:57:35.127Z,-0.88
2018-11-02T11:58:35.600Z,-0.84
2018-11-02T11:59:36.073Z,-0.87
2018-11-02T12:00:36.546Z,-0.94
2018-11-02T12:01:37.020Z,-0.94
2018-11-02T12:02:37.494Z,-1.03
2018-11-02T12:03:37.965Z,-1.11
2018-11-02T12:04:38.469Z,-1.18
2018-11-02T12:05:38.920Z,-1.18
2018-11-02T12:06:39.381Z,-1.26
2018-11-02T12:07:39.919Z,-1.32
2018-11-02T12:08:40.326Z,-1.28
2018-11-02T12:09:40.802Z,-1.23
2018-11-02T12:10:41.269Z,-1.24
2018-11-02T12:11:41.742Z,-1.21
2018-11-02T12:12:42.230Z,-1.11
2018-11-02T12:13:42.684Z,-1.00
2018-11-02T12:14:43.154Z,-0.88
2018-11-02T12:15:43.680Z,-0.84
2018-11-02T12:16:44.095Z,-0.86
2018-11-02T12:17:44.563Z,-0.91
2018-11-02T12:18:45.037Z,-0.83
2018-11-02T12:19:45.504Z,-0.78
2018-11-02T12:20:45.973Z,-0.58
2018-11-02T12:21:46.475Z,-0.44
2018-11-02T12:22:46.914Z,-0.30
2018-11-02T12:23:47.386Z,-0.19
2018-11-02T12:24:47.855Z,-0.02
2018-11-02T12:25:48.323Z,0.10
2018-11-02T12:26:48.792Z,0.18
2018-11-02T12:27:49.260Z,0.19
2018-11-02T12:28:49.786Z,0.14
2018-11-02T12:29:50.199Z,0.10
2018-11-02T12:30:50.669Z,0.08
2018-11-02T12:31:51.136Z,0.10
2018-11-02T12:32:51.611Z,0.11
2018-11-02T12:33:52.129Z,0.14
2018-11-02T12:34:52.546Z,0.20
2018-11-02T12:35:53.016Z,0.30
2018-11-02T12:36:53.497Z,0.38
2018-11-02T12:37:53.961Z,0.42
2018-11-02T12:38:54.476Z,0.48
2018-11-02T12:39:54.896Z,0.50
2018-11-02T12:40:55.365Z,0.46
2018-11-02T12:41:55.837Z,0.47
2018-11-02T12:42:56.364Z,0.41
2018-11-02T12:43:56.818Z,0.28
2018-11-02T12:44:57.247Z,0.14
2018-11-02T12:45:57.742Z,0.06
2018-11-02T12:46:58.192Z,-0.02
2018-11-02T12:47:58.715Z,-0.03
2018-11-02T12:48:59.309Z,0.02
2018-11-02T12:49:59.669Z,0.06
2018-11-02T12:51:00.079Z,0.16
2018-11-02T12:52:00.548Z,0.23
2018-11-02T12:53:01.019Z,0.34
2018-11-02T12:54:01.491Z,0.45
2018-11-02T12:55:01.969Z,0.52
2018-11-02T12:56:02.436Z,0.54
2018-11-02T12:57:02.907Z,0.53
2018-11-02T12:58:03.381Z,0.58
2018-11-02T12:59:03.854Z,0.61